sensor_id;sensor_type;location;lat;lon;timestamp;P1;durP1;ratioP1;P2;durP2;ratioP2
84943;SDS011;75231;53.650;9.788;2024-01-30T00:00:28;20.40;;;11.73;;
84943;SDS011;75231;53.650;9.788;2024-01-30T00:02:54;15.45;;;10.73;;
84943;SDS011;75231;53.650;9.788;2024-01-30T00:05:19;17.90;;;11.20;;
84943;SDS011;75231;53.650;9.788;2024-01-30T00:07:44;16.73;;;11.48;;
84943;SDS011;75231;53.650;9.788;2024-01-30T00:10:10;16.83;;;10.35;;
84943;SDS011;75231;53.650;9.788;2024-01-30T00:12:35;18.33;;;11.63;;
84943;SDS011;75231;53.650;9.788;2024-01-30T00:15:00;18.20;;;10.88;;
84943;SDS011;75231;53.650;9.788;2024-01-30T00:17:26;18.10;;;11.18;;
84943;SDS011;75231;53.650;9.788;2024-01-30T00:19:51;18.02;;;11.30;;
84943;SDS011;75231;53.650;9.788;2024-01-30T00:22:17;17.48;;;11.23;;
84943;SDS011;75231;53.650;9.788;2024-01-30T00:24:42;18.63;;;10.27;;
84943;SDS011;75231;53.650;9.788;2024-01-30T00:27:07;22.63;;;11.98;;
84943;SDS011;75231;53.650;9.788;2024-01-30T00:29:33;19.30;;;11.27;;
84943;SDS011;75231;53.650;9.788;2024-01-30T00:31:59;23.15;;;11.65;;
84943;SDS011;75231;53.650;9.788;2024-01-30T00:36:50;19.30;;;11.57;;
84943;SDS011;75231;53.650;9.788;2024-01-30T00:39:15;16.17;;;10.40;;
84943;SDS011;75231;53.650;9.788;2024-01-30T00:41:41;17.73;;;11.45;;
84943;SDS011;75231;53.650;9.788;2024-01-30T00:44:06;18.95;;;12.13;;
84943;SDS011;75231;53.650;9.788;2024-01-30T00:46:31;17.58;;;10.30;;
84943;SDS011;75231;53.650;9.788;2024-01-30T00:48:56;17.58;;;10.35;;
84943;SDS011;75231;53.650;9.788;2024-01-30T00:51:22;18.33;;;11.02;;
84943;SDS011;75231;53.650;9.788;2024-01-30T00:53:47;22.55;;;11.27;;
84943;SDS011;75231;53.650;9.788;2024-01-30T00:56:12;19.95;;;11.70;;
84943;SDS011;75231;53.650;9.788;2024-01-30T00:58:38;19.25;;;11.18;;
84943;SDS011;75231;53.650;9.788;2024-01-30T01:01:03;17.02;;;11.30;;
84943;SDS011;75231;53.650;9.788;2024-01-30T01:03:29;15.13;;;10.38;;
84943;SDS011;75231;53.650;9.788;2024-01-30T01:05:54;19.15;;;10.93;;
84943;SDS011;75231;53.650;9.788;2024-01-30T01:08:19;17.50;;;11.60;;
84943;SDS011;75231;53.650;9.788;2024-01-30T01:10:45;18.70;;;11.00;;
84943;SDS011;75231;53.650;9.788;2024-01-30T01:13:10;16.88;;;10.48;;
84943;SDS011;75231;53.650;9.788;2024-01-30T01:15:35;17.60;;;10.70;;
84943;SDS011;75231;53.650;9.788;2024-01-30T01:18:02;14.70;;;9.07;;
84943;SDS011;75231;53.650;9.788;2024-01-30T01:20:27;19.67;;;10.77;;
84943;SDS011;75231;53.650;9.788;2024-01-30T01:22:52;16.85;;;10.63;;
84943;SDS011;75231;53.650;9.788;2024-01-30T01:25:18;17.52;;;9.15;;
84943;SDS011;75231;53.650;9.788;2024-01-30T01:27:43;15.68;;;10.15;;
84943;SDS011;75231;53.650;9.788;2024-01-30T01:30:16;15.18;;;9.25;;
84943;SDS011;75231;53.650;9.788;2024-01-30T01:32:46;15.20;;;9.68;;
84943;SDS011;75231;53.650;9.788;2024-01-30T01:35:19;12.95;;;9.13;;
84943;SDS011;75231;53.650;9.788;2024-01-30T01:37:46;15.27;;;8.88;;
84943;SDS011;75231;53.650;9.788;2024-01-30T01:42:36;15.47;;;8.43;;
84943;SDS011;75231;53.650;9.788;2024-01-30T01:47:27;11.20;;;7.85;;
84943;SDS011;75231;53.650;9.788;2024-01-30T01:52:18;12.83;;;7.87;;
84943;SDS011;75231;53.650;9.788;2024-01-30T01:54:43;11.38;;;7.78;;
84943;SDS011;75231;53.650;9.788;2024-01-30T01:59:34;13.85;;;8.05;;
84943;SDS011;75231;53.650;9.788;2024-01-30T02:04:27;14.57;;;7.78;;
84943;SDS011;75231;53.650;9.788;2024-01-30T02:09:17;14.07;;;8.03;;
84943;SDS011;75231;53.650;9.788;2024-01-30T02:14:08;10.77;;;6.83;;
84943;SDS011;75231;53.650;9.788;2024-01-30T02:18:59;11.90;;;8.10;;
84943;SDS011;75231;53.650;9.788;2024-01-30T02:23:49;13.45;;;8.88;;
84943;SDS011;75231;53.650;9.788;2024-01-30T02:28:41;11.53;;;7.60;;
84943;SDS011;75231;53.650;9.788;2024-01-30T02:33:31;14.23;;;9.07;;
84943;SDS011;75231;53.650;9.788;2024-01-30T02:35:57;13.68;;;9.27;;
84943;SDS011;75231;53.650;9.788;2024-01-30T02:38:22;15.32;;;9.10;;
84943;SDS011;75231;53.650;9.788;2024-01-30T02:40:48;15.32;;;8.63;;
84943;SDS011;75231;53.650;9.788;2024-01-30T02:45:39;15.30;;;8.77;;
84943;SDS011;75231;53.650;9.788;2024-01-30T02:48:04;13.07;;;9.02;;
84943;SDS011;75231;53.650;9.788;2024-01-30T02:52:55;13.03;;;8.33;;
84943;SDS011;75231;53.650;9.788;2024-01-30T02:57:45;13.00;;;8.23;;
84943;SDS011;75231;53.650;9.788;2024-01-30T03:02:36;12.20;;;7.28;;
84943;SDS011;75231;53.650;9.788;2024-01-30T03:05:02;12.07;;;7.82;;
84943;SDS011;75231;53.650;9.788;2024-01-30T03:07:31;13.63;;;8.68;;
84943;SDS011;75231;53.650;9.788;2024-01-30T03:12:21;14.50;;;9.07;;
84943;SDS011;75231;53.650;9.788;2024-01-30T03:14:47;13.85;;;9.20;;
84943;SDS011;75231;53.650;9.788;2024-01-30T03:17:12;10.80;;;7.72;;
84943;SDS011;75231;53.650;9.788;2024-01-30T03:19:38;12.95;;;8.00;;
84943;SDS011;75231;53.650;9.788;2024-01-30T03:22:03;14.38;;;9.02;;
84943;SDS011;75231;53.650;9.788;2024-01-30T03:24:29;13.13;;;8.23;;
84943;SDS011;75231;53.650;9.788;2024-01-30T03:26:54;13.20;;;8.82;;
84943;SDS011;75231;53.650;9.788;2024-01-30T03:29:19;13.15;;;8.38;;
84943;SDS011;75231;53.650;9.788;2024-01-30T03:31:44;13.82;;;8.05;;
84943;SDS011;75231;53.650;9.788;2024-01-30T03:34:10;13.05;;;8.50;;
84943;SDS011;75231;53.650;9.788;2024-01-30T03:36:35;13.75;;;9.10;;
84943;SDS011;75231;53.650;9.788;2024-01-30T03:39:00;16.77;;;9.23;;
84943;SDS011;75231;53.650;9.788;2024-01-30T03:41:26;16.05;;;9.80;;
84943;SDS011;75231;53.650;9.788;2024-01-30T03:43:52;14.63;;;10.52;;
84943;SDS011;75231;53.650;9.788;2024-01-30T03:46:17;14.05;;;9.27;;
84943;SDS011;75231;53.650;9.788;2024-01-30T03:48:42;16.13;;;10.02;;
84943;SDS011;75231;53.650;9.788;2024-01-30T03:51:08;16.38;;;9.73;;
84943;SDS011;75231;53.650;9.788;2024-01-30T03:53:34;14.13;;;9.40;;
84943;SDS011;75231;53.650;9.788;2024-01-30T03:56:00;16.17;;;9.40;;
84943;SDS011;75231;53.650;9.788;2024-01-30T03:58:25;12.77;;;9.02;;
84943;SDS011;75231;53.650;9.788;2024-01-30T04:00:51;11.95;;;9.05;;
84943;SDS011;75231;53.650;9.788;2024-01-30T04:03:16;14.05;;;8.45;;
84943;SDS011;75231;53.650;9.788;2024-01-30T04:05:42;14.68;;;9.18;;
84943;SDS011;75231;53.650;9.788;2024-01-30T04:08:07;11.82;;;8.85;;
84943;SDS011;75231;53.650;9.788;2024-01-30T04:10:33;15.25;;;9.05;;
84943;SDS011;75231;53.650;9.788;2024-01-30T04:12:59;12.63;;;8.60;;
84943;SDS011;75231;53.650;9.788;2024-01-30T04:15:25;14.82;;;8.60;;
84943;SDS011;75231;53.650;9.788;2024-01-30T04:17:50;16.95;;;9.73;;
84943;SDS011;75231;53.650;9.788;2024-01-30T04:20:16;13.00;;;8.82;;
84943;SDS011;75231;53.650;9.788;2024-01-30T04:22:42;15.27;;;10.00;;
84943;SDS011;75231;53.650;9.788;2024-01-30T04:25:09;14.18;;;9.63;;
84943;SDS011;75231;53.650;9.788;2024-01-30T04:27:34;15.40;;;9.10;;
84943;SDS011;75231;53.650;9.788;2024-01-30T04:29:59;13.55;;;9.77;;
84943;SDS011;75231;53.650;9.788;2024-01-30T04:32:24;15.43;;;9.40;;
84943;SDS011;75231;53.650;9.788;2024-01-30T04:34:50;15.25;;;10.07;;
84943;SDS011;75231;53.650;9.788;2024-01-30T04:37:15;16.13;;;8.45;;
84943;SDS011;75231;53.650;9.788;2024-01-30T04:39:40;14.70;;;8.95;;
84943;SDS011;75231;53.650;9.788;2024-01-30T04:42:06;13.63;;;9.23;;
84943;SDS011;75231;53.650;9.788;2024-01-30T04:44:31;12.13;;;8.57;;
84943;SDS011;75231;53.650;9.788;2024-01-30T04:46:56;13.13;;;8.32;;
84943;SDS011;75231;53.650;9.788;2024-01-30T04:49:24;16.13;;;10.57;;
84943;SDS011;75231;53.650;9.788;2024-01-30T04:51:49;12.75;;;8.23;;
84943;SDS011;75231;53.650;9.788;2024-01-30T04:54:14;15.38;;;9.02;;
84943;SDS011;75231;53.650;9.788;2024-01-30T04:56:39;14.55;;;9.65;;
84943;SDS011;75231;53.650;9.788;2024-01-30T04:59:05;14.43;;;9.43;;
84943;SDS011;75231;53.650;9.788;2024-01-30T05:01:30;14.40;;;9.23;;
84943;SDS011;75231;53.650;9.788;2024-01-30T05:03:55;14.25;;;9.43;;
84943;SDS011;75231;53.650;9.788;2024-01-30T05:06:24;15.32;;;9.93;;
84943;SDS011;75231;53.650;9.788;2024-01-30T05:08:52;13.82;;;8.93;;
84943;SDS011;75231;53.650;9.788;2024-01-30T05:11:18;15.18;;;9.63;;
84943;SDS011;75231;53.650;9.788;2024-01-30T05:13:43;12.13;;;8.93;;
84943;SDS011;75231;53.650;9.788;2024-01-30T05:16:08;14.95;;;10.00;;
84943;SDS011;75231;53.650;9.788;2024-01-30T05:18:33;14.18;;;9.50;;
84943;SDS011;75231;53.650;9.788;2024-01-30T05:20:59;14.02;;;9.60;;
84943;SDS011;75231;53.650;9.788;2024-01-30T05:23:24;13.98;;;9.65;;
84943;SDS011;75231;53.650;9.788;2024-01-30T05:25:50;13.18;;;9.43;;
84943;SDS011;75231;53.650;9.788;2024-01-30T05:28:15;16.80;;;9.23;;
84943;SDS011;75231;53.650;9.788;2024-01-30T05:30:40;16.02;;;9.65;;
84943;SDS011;75231;53.650;9.788;2024-01-30T05:33:05;14.82;;;9.80;;
84943;SDS011;75231;53.650;9.788;2024-01-30T05:35:31;14.23;;;9.05;;
84943;SDS011;75231;53.650;9.788;2024-01-30T05:37:56;19.83;;;11.23;;
84943;SDS011;75231;53.650;9.788;2024-01-30T05:40:21;17.90;;;10.32;;
84943;SDS011;75231;53.650;9.788;2024-01-30T05:42:47;15.15;;;10.85;;
84943;SDS011;75231;53.650;9.788;2024-01-30T05:45:12;18.05;;;10.73;;
84943;SDS011;75231;53.650;9.788;2024-01-30T05:47:38;13.80;;;10.10;;
84943;SDS011;75231;53.650;9.788;2024-01-30T05:50:04;16.88;;;10.88;;
84943;SDS011;75231;53.650;9.788;2024-01-30T05:52:31;17.50;;;11.02;;
84943;SDS011;75231;53.650;9.788;2024-01-30T05:54:56;21.00;;;12.13;;
84943;SDS011;75231;53.650;9.788;2024-01-30T05:57:21;20.13;;;12.32;;
84943;SDS011;75231;53.650;9.788;2024-01-30T05:59:46;17.55;;;11.48;;
84943;SDS011;75231;53.650;9.788;2024-01-30T06:02:13;17.20;;;11.35;;
84943;SDS011;75231;53.650;9.788;2024-01-30T06:04:38;17.05;;;10.80;;
84943;SDS011;75231;53.650;9.788;2024-01-30T06:07:03;18.60;;;13.35;;
84943;SDS011;75231;53.650;9.788;2024-01-30T06:09:31;15.77;;;10.27;;
84943;SDS011;75231;53.650;9.788;2024-01-30T06:11:56;18.80;;;12.00;;
84943;SDS011;75231;53.650;9.788;2024-01-30T06:14:22;18.95;;;12.55;;
84943;SDS011;75231;53.650;9.788;2024-01-30T06:16:47;17.05;;;11.73;;
84943;SDS011;75231;53.650;9.788;2024-01-30T06:19:12;18.30;;;11.85;;
84943;SDS011;75231;53.650;9.788;2024-01-30T06:21:37;18.25;;;11.60;;
84943;SDS011;75231;53.650;9.788;2024-01-30T06:24:03;19.58;;;12.13;;
84943;SDS011;75231;53.650;9.788;2024-01-30T06:26:29;14.88;;;10.70;;
84943;SDS011;75231;53.650;9.788;2024-01-30T06:31:19;18.10;;;10.93;;
84943;SDS011;75231;53.650;9.788;2024-01-30T06:33:48;18.10;;;12.05;;
84943;SDS011;75231;53.650;9.788;2024-01-30T06:36:13;21.45;;;11.45;;
84943;SDS011;75231;53.650;9.788;2024-01-30T06:41:04;16.75;;;10.80;;
84943;SDS011;75231;53.650;9.788;2024-01-30T06:45:55;17.07;;;10.87;;
84943;SDS011;75231;53.650;9.788;2024-01-30T06:48:20;16.63;;;11.57;;
84943;SDS011;75231;53.650;9.788;2024-01-30T06:50:45;19.70;;;12.65;;
84943;SDS011;75231;53.650;9.788;2024-01-30T06:53:11;19.45;;;12.88;;
84943;SDS011;75231;53.650;9.788;2024-01-30T06:55:36;19.85;;;13.05;;
84943;SDS011;75231;53.650;9.788;2024-01-30T06:58:01;22.58;;;13.95;;
84943;SDS011;75231;53.650;9.788;2024-01-30T07:00:27;19.48;;;12.30;;
84943;SDS011;75231;53.650;9.788;2024-01-30T07:02:52;19.42;;;12.45;;
84943;SDS011;75231;53.650;9.788;2024-01-30T07:05:18;19.50;;;12.25;;
84943;SDS011;75231;53.650;9.788;2024-01-30T07:07:43;18.50;;;12.35;;
84943;SDS011;75231;53.650;9.788;2024-01-30T07:10:08;18.35;;;12.40;;
84943;SDS011;75231;53.650;9.788;2024-01-30T07:12:34;20.83;;;12.57;;
84943;SDS011;75231;53.650;9.788;2024-01-30T07:17:24;22.57;;;12.17;;
84943;SDS011;75231;53.650;9.788;2024-01-30T07:19:50;19.52;;;12.98;;
84943;SDS011;75231;53.650;9.788;2024-01-30T07:22:15;21.20;;;12.68;;
84943;SDS011;75231;53.650;9.788;2024-01-30T07:24:43;22.98;;;13.82;;
84943;SDS011;75231;53.650;9.788;2024-01-30T07:27:14;20.88;;;13.65;;
84943;SDS011;75231;53.650;9.788;2024-01-30T07:32:05;21.07;;;12.53;;
84943;SDS011;75231;53.650;9.788;2024-01-30T07:36:55;21.33;;;12.90;;
84943;SDS011;75231;53.650;9.788;2024-01-30T07:39:21;21.88;;;12.60;;
84943;SDS011;75231;53.650;9.788;2024-01-30T07:41:46;21.33;;;13.30;;
84943;SDS011;75231;53.650;9.788;2024-01-30T07:46:37;21.40;;;12.70;;
84943;SDS011;75231;53.650;9.788;2024-01-30T07:51:27;21.53;;;12.73;;
84943;SDS011;75231;53.650;9.788;2024-01-30T07:53:54;19.63;;;12.52;;
84943;SDS011;75231;53.650;9.788;2024-01-30T07:58:45;21.10;;;12.73;;
84943;SDS011;75231;53.650;9.788;2024-01-30T08:03:36;20.10;;;12.57;;
84943;SDS011;75231;53.650;9.788;2024-01-30T08:08:27;18.97;;;11.27;;
84943;SDS011;75231;53.650;9.788;2024-01-30T08:10:53;20.10;;;12.95;;
84943;SDS011;75231;53.650;9.788;2024-01-30T08:15:47;17.45;;;11.48;;
84943;SDS011;75231;53.650;9.788;2024-01-30T08:20:37;19.63;;;11.97;;
84943;SDS011;75231;53.650;9.788;2024-01-30T08:25:28;18.95;;;11.55;;
84943;SDS011;75231;53.650;9.788;2024-01-30T08:27:54;21.15;;;11.38;;
84943;SDS011;75231;53.650;9.788;2024-01-30T08:32:44;19.33;;;11.77;;
84943;SDS011;75231;53.650;9.788;2024-01-30T08:37:38;18.33;;;11.88;;
84943;SDS011;75231;53.650;9.788;2024-01-30T08:42:29;17.35;;;12.43;;
84943;SDS011;75231;53.650;9.788;2024-01-30T08:47:21;19.20;;;11.68;;
84943;SDS011;75231;53.650;9.788;2024-01-30T08:49:48;19.45;;;12.20;;
84943;SDS011;75231;53.650;9.788;2024-01-30T08:52:13;17.45;;;11.70;;
84943;SDS011;75231;53.650;9.788;2024-01-30T08:57:04;16.40;;;11.10;;
84943;SDS011;75231;53.650;9.788;2024-01-30T09:01:55;18.40;;;12.02;;
84943;SDS011;75231;53.650;9.788;2024-01-30T09:04:22;19.13;;;12.27;;
84943;SDS011;75231;53.650;9.788;2024-01-30T09:06:48;21.98;;;13.52;;
84943;SDS011;75231;53.650;9.788;2024-01-30T09:09:14;18.83;;;12.15;;
84943;SDS011;75231;53.650;9.788;2024-01-30T09:14:04;16.00;;;10.38;;
84943;SDS011;75231;53.650;9.788;2024-01-30T09:18:55;17.13;;;11.27;;
84943;SDS011;75231;53.650;9.788;2024-01-30T09:23:45;20.03;;;11.53;;
84943;SDS011;75231;53.650;9.788;2024-01-30T09:28:37;16.50;;;11.27;;
84943;SDS011;75231;53.650;9.788;2024-01-30T09:31:03;16.02;;;10.45;;
84943;SDS011;75231;53.650;9.788;2024-01-30T09:33:34;16.63;;;10.80;;
84943;SDS011;75231;53.650;9.788;2024-01-30T09:36:01;17.83;;;10.80;;
84943;SDS011;75231;53.650;9.788;2024-01-30T09:38:26;16.95;;;10.50;;
84943;SDS011;75231;53.650;9.788;2024-01-30T09:40:53;17.45;;;10.05;;
84943;SDS011;75231;53.650;9.788;2024-01-30T09:43:22;16.60;;;10.82;;
84943;SDS011;75231;53.650;9.788;2024-01-30T09:45:48;16.88;;;9.65;;
84943;SDS011;75231;53.650;9.788;2024-01-30T09:48:18;16.45;;;10.85;;
84943;SDS011;75231;53.650;9.788;2024-01-30T09:50:44;17.08;;;11.32;;
84943;SDS011;75231;53.650;9.788;2024-01-30T09:55:36;15.68;;;9.57;;
84943;SDS011;75231;53.650;9.788;2024-01-30T09:58:02;15.75;;;9.77;;
84943;SDS011;75231;53.650;9.788;2024-01-30T10:00:27;15.50;;;9.68;;
84943;SDS011;75231;53.650;9.788;2024-01-30T10:02:53;14.57;;;9.40;;
84943;SDS011;75231;53.650;9.788;2024-01-30T10:05:19;14.68;;;10.10;;
84943;SDS011;75231;53.650;9.788;2024-01-30T10:07:55;16.73;;;10.15;;
84943;SDS011;75231;53.650;9.788;2024-01-30T10:10:22;14.77;;;10.13;;
84943;SDS011;75231;53.650;9.788;2024-01-30T10:12:48;13.95;;;9.85;;
84943;SDS011;75231;53.650;9.788;2024-01-30T10:15:14;16.80;;;10.05;;
84943;SDS011;75231;53.650;9.788;2024-01-30T10:17:39;14.23;;;9.38;;
84943;SDS011;75231;53.650;9.788;2024-01-30T10:20:05;15.60;;;10.15;;
84943;SDS011;75231;53.650;9.788;2024-01-30T10:22:30;15.27;;;10.13;;
84943;SDS011;75231;53.650;9.788;2024-01-30T10:24:56;16.20;;;9.95;;
84943;SDS011;75231;53.650;9.788;2024-01-30T10:27:27;12.13;;;9.65;;
84943;SDS011;75231;53.650;9.788;2024-01-30T10:29:54;15.10;;;9.75;;
84943;SDS011;75231;53.650;9.788;2024-01-30T10:32:20;16.98;;;9.27;;
84943;SDS011;75231;53.650;9.788;2024-01-30T10:34:46;15.23;;;10.20;;
84943;SDS011;75231;53.650;9.788;2024-01-30T10:37:11;15.82;;;10.27;;
84943;SDS011;75231;53.650;9.788;2024-01-30T10:39:40;15.38;;;10.50;;
84943;SDS011;75231;53.650;9.788;2024-01-30T10:42:06;17.65;;;10.52;;
84943;SDS011;75231;53.650;9.788;2024-01-30T10:44:43;22.13;;;12.55;;
84943;SDS011;75231;53.650;9.788;2024-01-30T10:47:13;16.73;;;10.43;;
84943;SDS011;75231;53.650;9.788;2024-01-30T10:49:46;16.88;;;10.95;;
84943;SDS011;75231;53.650;9.788;2024-01-30T10:52:12;16.73;;;11.90;;
84943;SDS011;75231;53.650;9.788;2024-01-30T10:54:39;17.67;;;11.43;;
84943;SDS011;75231;53.650;9.788;2024-01-30T10:57:05;15.70;;;11.05;;
84943;SDS011;75231;53.650;9.788;2024-01-30T10:59:31;18.60;;;10.13;;
84943;SDS011;75231;53.650;9.788;2024-01-30T11:01:58;12.98;;;8.68;;
84943;SDS011;75231;53.650;9.788;2024-01-30T11:04:24;13.23;;;9.23;;
84943;SDS011;75231;53.650;9.788;2024-01-30T11:06:50;13.43;;;8.57;;
84943;SDS011;75231;53.650;9.788;2024-01-30T11:09:16;14.25;;;8.70;;
84943;SDS011;75231;53.650;9.788;2024-01-30T11:11:56;14.20;;;9.52;;
84943;SDS011;75231;53.650;9.788;2024-01-30T11:14:26;14.45;;;9.07;;
84943;SDS011;75231;53.650;9.788;2024-01-30T11:16:56;12.45;;;8.75;;
84943;SDS011;75231;53.650;9.788;2024-01-30T11:19:23;13.75;;;9.30;;
84943;SDS011;75231;53.650;9.788;2024-01-30T11:21:52;13.02;;;8.55;;
84943;SDS011;75231;53.650;9.788;2024-01-30T11:24:19;15.07;;;9.38;;
84943;SDS011;75231;53.650;9.788;2024-01-30T11:26:58;14.32;;;8.63;;
84943;SDS011;75231;53.650;9.788;2024-01-30T11:29:27;12.48;;;8.70;;
84943;SDS011;75231;53.650;9.788;2024-01-30T11:31:56;13.32;;;8.98;;
84943;SDS011;75231;53.650;9.788;2024-01-30T11:34:23;14.45;;;9.35;;
84943;SDS011;75231;53.650;9.788;2024-01-30T11:36:53;14.52;;;9.07;;
84943;SDS011;75231;53.650;9.788;2024-01-30T11:39:24;15.13;;;9.00;;
84943;SDS011;75231;53.650;9.788;2024-01-30T11:41:50;13.10;;;8.60;;
84943;SDS011;75231;53.650;9.788;2024-01-30T11:44:17;12.57;;;8.73;;
84943;SDS011;75231;53.650;9.788;2024-01-30T11:46:43;11.35;;;8.60;;
84943;SDS011;75231;53.650;9.788;2024-01-30T11:49:08;13.82;;;8.88;;
84943;SDS011;75231;53.650;9.788;2024-01-30T11:51:33;13.73;;;9.57;;
84943;SDS011;75231;53.650;9.788;2024-01-30T11:53:59;12.70;;;8.82;;
84943;SDS011;75231;53.650;9.788;2024-01-30T11:56:24;13.25;;;9.02;;
84943;SDS011;75231;53.650;9.788;2024-01-30T11:58:51;13.00;;;8.93;;
84943;SDS011;75231;53.650;9.788;2024-01-30T12:01:17;12.15;;;7.97;;
84943;SDS011;75231;53.650;9.788;2024-01-30T12:03:42;11.32;;;8.90;;
84943;SDS011;75231;53.650;9.788;2024-01-30T12:06:15;14.38;;;8.75;;
84943;SDS011;75231;53.650;9.788;2024-01-30T12:08:40;14.10;;;9.30;;
84943;SDS011;75231;53.650;9.788;2024-01-30T12:11:06;15.18;;;9.02;;
84943;SDS011;75231;53.650;9.788;2024-01-30T12:13:31;13.32;;;8.65;;
84943;SDS011;75231;53.650;9.788;2024-01-30T12:15:57;15.00;;;9.27;;
84943;SDS011;75231;53.650;9.788;2024-01-30T12:18:22;12.02;;;8.05;;
84943;SDS011;75231;53.650;9.788;2024-01-30T12:21:00;14.23;;;9.27;;
84943;SDS011;75231;53.650;9.788;2024-01-30T12:23:30;12.43;;;8.90;;
84943;SDS011;75231;53.650;9.788;2024-01-30T12:25:55;13.90;;;8.98;;
84943;SDS011;75231;53.650;9.788;2024-01-30T12:28:22;16.85;;;9.38;;
84943;SDS011;75231;53.650;9.788;2024-01-30T12:30:48;13.00;;;8.82;;
84943;SDS011;75231;53.650;9.788;2024-01-30T12:33:16;14.68;;;9.43;;
84943;SDS011;75231;53.650;9.788;2024-01-30T12:35:47;12.52;;;8.45;;
84943;SDS011;75231;53.650;9.788;2024-01-30T12:38:15;13.38;;;9.23;;
84943;SDS011;75231;53.650;9.788;2024-01-30T12:40:40;13.77;;;9.68;;
84943;SDS011;75231;53.650;9.788;2024-01-30T12:43:06;13.82;;;8.85;;
84943;SDS011;75231;53.650;9.788;2024-01-30T12:45:31;14.25;;;8.95;;
84943;SDS011;75231;53.650;9.788;2024-01-30T12:47:56;16.73;;;10.30;;
84943;SDS011;75231;53.650;9.788;2024-01-30T12:50:23;12.90;;;8.43;;
84943;SDS011;75231;53.650;9.788;2024-01-30T12:52:49;13.40;;;9.13;;
84943;SDS011;75231;53.650;9.788;2024-01-30T12:55:14;12.27;;;8.48;;
84943;SDS011;75231;53.650;9.788;2024-01-30T12:57:40;12.73;;;8.38;;
84943;SDS011;75231;53.650;9.788;2024-01-30T13:00:05;12.95;;;8.98;;
84943;SDS011;75231;53.650;9.788;2024-01-30T13:02:33;13.82;;;8.68;;
84943;SDS011;75231;53.650;9.788;2024-01-30T13:05:02;14.40;;;8.85;;
84943;SDS011;75231;53.650;9.788;2024-01-30T13:07:28;15.60;;;10.43;;
84943;SDS011;75231;53.650;9.788;2024-01-30T13:09:54;15.25;;;9.13;;
84943;SDS011;75231;53.650;9.788;2024-01-30T13:12:19;15.63;;;8.60;;
84943;SDS011;75231;53.650;9.788;2024-01-30T13:14:44;11.73;;;8.75;;
84943;SDS011;75231;53.650;9.788;2024-01-30T13:17:10;13.98;;;8.57;;
84943;SDS011;75231;53.650;9.788;2024-01-30T13:19:35;15.57;;;8.80;;
84943;SDS011;75231;53.650;9.788;2024-01-30T13:22:00;11.55;;;8.10;;
84943;SDS011;75231;53.650;9.788;2024-01-30T13:24:26;14.05;;;8.98;;
84943;SDS011;75231;53.650;9.788;2024-01-30T13:26:51;11.20;;;8.23;;
84943;SDS011;75231;53.650;9.788;2024-01-30T13:29:18;13.10;;;8.48;;
84943;SDS011;75231;53.650;9.788;2024-01-30T13:31:43;12.10;;;8.88;;
84943;SDS011;75231;53.650;9.788;2024-01-30T13:34:11;15.60;;;8.88;;
84943;SDS011;75231;53.650;9.788;2024-01-30T13:36:36;13.32;;;8.70;;
84943;SDS011;75231;53.650;9.788;2024-01-30T13:39:02;12.43;;;8.45;;
84943;SDS011;75231;53.650;9.788;2024-01-30T13:41:27;13.98;;;9.55;;
84943;SDS011;75231;53.650;9.788;2024-01-30T13:43:54;13.52;;;9.38;;
84943;SDS011;75231;53.650;9.788;2024-01-30T13:46:20;15.90;;;9.15;;
84943;SDS011;75231;53.650;9.788;2024-01-30T13:48:45;15.80;;;9.07;;
84943;SDS011;75231;53.650;9.788;2024-01-30T13:51:11;14.65;;;8.88;;
84943;SDS011;75231;53.650;9.788;2024-01-30T13:53:38;16.77;;;9.73;;
84943;SDS011;75231;53.650;9.788;2024-01-30T13:56:03;12.07;;;9.10;;
84943;SDS011;75231;53.650;9.788;2024-01-30T13:58:29;15.10;;;8.60;;
84943;SDS011;75231;53.650;9.788;2024-01-30T14:00:54;14.98;;;9.20;;
84943;SDS011;75231;53.650;9.788;2024-01-30T14:03:20;20.08;;;9.90;;
84943;SDS011;75231;53.650;9.788;2024-01-30T14:05:45;13.23;;;8.90;;
84943;SDS011;75231;53.650;9.788;2024-01-30T14:08:11;16.75;;;10.10;;
84943;SDS011;75231;53.650;9.788;2024-01-30T14:10:37;16.58;;;9.55;;
84943;SDS011;75231;53.650;9.788;2024-01-30T14:13:02;12.32;;;8.43;;
84943;SDS011;75231;53.650;9.788;2024-01-30T14:15:27;15.95;;;9.50;;
84943;SDS011;75231;53.650;9.788;2024-01-30T14:17:53;17.23;;;9.73;;
84943;SDS011;75231;53.650;9.788;2024-01-30T14:20:21;13.90;;;9.02;;
84943;SDS011;75231;53.650;9.788;2024-01-30T14:22:47;13.70;;;8.73;;
84943;SDS011;75231;53.650;9.788;2024-01-30T14:25:12;16.05;;;9.82;;
84943;SDS011;75231;53.650;9.788;2024-01-30T14:27:41;18.15;;;10.15;;
84943;SDS011;75231;53.650;9.788;2024-01-30T14:30:08;15.02;;;9.23;;
84943;SDS011;75231;53.650;9.788;2024-01-30T14:32:35;13.32;;;8.82;;
84943;SDS011;75231;53.650;9.788;2024-01-30T14:35:00;11.95;;;8.90;;
84943;SDS011;75231;53.650;9.788;2024-01-30T14:37:26;15.98;;;9.50;;
84943;SDS011;75231;53.650;9.788;2024-01-30T14:39:54;14.93;;;9.32;;
84943;SDS011;75231;53.650;9.788;2024-01-30T14:42:22;15.63;;;9.00;;
84943;SDS011;75231;53.650;9.788;2024-01-30T14:44:47;14.40;;;9.27;;
84943;SDS011;75231;53.650;9.788;2024-01-30T14:47:14;13.52;;;9.15;;
84943;SDS011;75231;53.650;9.788;2024-01-30T14:49:39;15.48;;;9.80;;
84943;SDS011;75231;53.650;9.788;2024-01-30T14:52:04;15.75;;;9.25;;
84943;SDS011;75231;53.650;9.788;2024-01-30T14:54:30;12.98;;;9.18;;
84943;SDS011;75231;53.650;9.788;2024-01-30T14:56:55;13.15;;;9.05;;
84943;SDS011;75231;53.650;9.788;2024-01-30T14:59:21;14.85;;;10.57;;
84943;SDS011;75231;53.650;9.788;2024-01-30T15:01:47;14.15;;;9.80;;
84943;SDS011;75231;53.650;9.788;2024-01-30T15:04:13;15.57;;;9.63;;
84943;SDS011;75231;53.650;9.788;2024-01-30T15:06:38;14.95;;;9.27;;
84943;SDS011;75231;53.650;9.788;2024-01-30T15:09:08;14.95;;;9.48;;
84943;SDS011;75231;53.650;9.788;2024-01-30T15:11:33;13.95;;;8.57;;
84943;SDS011;75231;53.650;9.788;2024-01-30T15:14:01;13.82;;;8.40;;
84943;SDS011;75231;53.650;9.788;2024-01-30T15:16:26;16.13;;;10.52;;
84943;SDS011;75231;53.650;9.788;2024-01-30T15:18:53;14.70;;;10.27;;
84943;SDS011;75231;53.650;9.788;2024-01-30T15:21:18;14.80;;;9.85;;
84943;SDS011;75231;53.650;9.788;2024-01-30T15:23:47;14.50;;;9.10;;
84943;SDS011;75231;53.650;9.788;2024-01-30T15:26:12;14.68;;;9.75;;
84943;SDS011;75231;53.650;9.788;2024-01-30T15:28:38;14.77;;;8.80;;
84943;SDS011;75231;53.650;9.788;2024-01-30T15:31:05;19.10;;;10.35;;
84943;SDS011;75231;53.650;9.788;2024-01-30T15:33:31;19.92;;;9.98;;
84943;SDS011;75231;53.650;9.788;2024-01-30T15:35:57;13.75;;;9.52;;
84943;SDS011;75231;53.650;9.788;2024-01-30T15:38:23;15.02;;;9.35;;
84943;SDS011;75231;53.650;9.788;2024-01-30T15:40:49;14.75;;;8.98;;
84943;SDS011;75231;53.650;9.788;2024-01-30T15:43:14;14.70;;;9.52;;
84943;SDS011;75231;53.650;9.788;2024-01-30T15:45:39;14.65;;;8.95;;
84943;SDS011;75231;53.650;9.788;2024-01-30T15:48:05;15.60;;;9.82;;
84943;SDS011;75231;53.650;9.788;2024-01-30T15:50:31;15.88;;;10.10;;
84943;SDS011;75231;53.650;9.788;2024-01-30T15:52:56;18.63;;;10.07;;
84943;SDS011;75231;53.650;9.788;2024-01-30T15:55:21;14.95;;;9.57;;
84943;SDS011;75231;53.650;9.788;2024-01-30T15:57:47;15.50;;;9.90;;
84943;SDS011;75231;53.650;9.788;2024-01-30T16:00:12;17.58;;;10.23;;
84943;SDS011;75231;53.650;9.788;2024-01-30T16:02:41;16.25;;;9.77;;